Terminal Aerodrome Forecast
Issued by NWS Sterling, VA

Current Version | Previous Version | Graphics & Text | Print | Product List | Glossary On
Versions: 1 2 3 4 5 6 7 8 9 10 11 12 13 14 15 16 17 18 19 20 21 22 23 24 25
000
FTUS41 KLWX 180500
TAFIAD
TAF
KIAD 180530Z 1806/1912 29008KT P6SM SCT050
     FM181000 28015G25KT P6SM FEW050 FEW250
     FM181500 28020G30KT P6SM FEW250
     FM182300 28011KT P6SM FEW250=

USA.gov is the U.S. government's official web portal to all federal, state and local government web resources and services.